Time;durP1;ratioP1;P1;durP2;ratioP2;P2;SDS_P1;SDS_P2;PMS_P1;PMS_P2;Temp;Humidity;BMP_temperature;BMP_pressure;BME280_temperature;BME280_humidity;BME280_pressure;Samples;Min_cycle;Max_cycle;Signal;HPM_P1;HPM_P2
2022/11/09 00:01:20;;;;;;;4.68;2.00;;;;;;;13.72;83.01;100370.78;4965366;28;20150;-74
2022/11/09 00:03:46;;;;;;;5.38;2.15;;;;;;;13.70;83.31;100361.97;4952399;29;20055;-74
2022/11/09 00:06:11;;;;;;;5.28;2.78;;;;;;;13.70;83.56;100361.97;4953316;28;20469;-74
2022/11/09 00:08:37;;;;;;;13.95;3.00;;;;;;;13.64;83.06;100357.28;4952499;29;20055;-74
2022/11/09 00:11:08;;;;;;;14.80;3.25;;;;;;;13.64;83.66;100351.84;4941840;28;20058;-74
2022/11/09 00:13:38;;;;;;;6.25;2.10;;;;;;;13.88;83.05;100357.97;4941993;29;20027;-75
2022/11/09 00:16:05;;;;;;;5.60;1.92;;;;;;;13.74;83.19;100363.25;4940911;29;20499;-74
2022/11/09 00:18:34;;;;;;;6.18;1.80;;;;;;;13.48;84.10;100363.75;4966626;28;20043;-75
2022/11/09 00:21:05;;;;;;;5.00;2.40;;;;;;;13.49;84.43;100359.16;4950971;28;20110;-74
2022/11/09 00:23:30;;;;;;;6.22;2.03;;;;;;;13.54;84.42;100356.72;4951667;29;20102;-74
2022/11/09 00:26:03;;;;;;;6.35;2.33;;;;;;;13.57;84.15;100350.91;4951864;29;20448;-74
2022/11/09 00:28:29;;;;;;;4.40;2.10;;;;;;;13.62;84.11;100350.34;4951633;29;20039;-74
2022/11/09 00:31:02;;;;;;;8.73;2.13;;;;;;;13.42;84.83;100341.94;4946695;29;20035;-75
2022/11/09 00:33:28;;;;;;;7.20;2.08;;;;;;;13.45;84.54;100341.56;4946681;29;20050;-74
2022/11/09 00:35:54;;;;;;;4.05;1.95;;;;;;;13.39;85.13;100337.72;4951382;29;20027;-74
2022/11/09 00:38:20;;;;;;;5.85;2.08;;;;;;;13.40;85.07;100333.13;4951949;29;20078;-74
2022/11/09 00:40:45;;;;;;;7.22;2.38;;;;;;;13.32;85.34;100330.50;4953055;29;20023;-75
2022/11/09 00:43:10;;;;;;;5.28;2.28;;;;;;;13.40;85.46;100327.69;4950769;29;20067;-74
2022/11/09 00:45:37;;;;;;;4.45;2.10;;;;;;;13.28;85.85;100336.31;4951393;29;20165;-75
2022/11/09 00:48:03;;;;;;;12.93;2.25;;;;;;;13.35;85.61;100335.56;4967053;28;20024;-74
2022/11/09 00:50:28;;;;;;;9.48;2.28;;;;;;;13.46;85.04;100337.81;4951172;29;20034;-74
2022/11/09 00:52:54;;;;;;;8.52;2.08;;;;;;;13.27;85.72;100325.63;4952265;28;20026;-74
2022/11/09 00:55:25;;;;;;;5.57;2.13;;;;;;;13.29;86.09;100327.13;4951921;29;20031;-74
2022/11/09 00:57:51;;;;;;;9.25;2.50;;;;;;;13.50;85.33;100333.69;4953154;29;20054;-74
2022/11/09 01:00:21;;;;;;;6.78;1.90;;;;;;;13.48;85.22;100324.84;4951226;29;20490;-74
2022/11/09 01:02:48;;;;;;;3.65;1.90;;;;;;;13.28;86.00;100314.56;4951075;29;20047;-74
2022/11/09 01:05:13;;;;;;;8.98;2.63;;;;;;;13.35;85.96;100330.13;4944012;29;20019;-74
2022/11/09 01:07:39;;;;;;;5.40;2.33;;;;;;;13.37;85.60;100322.63;4947398;29;20095;-74
2022/11/09 01:10:05;;;;;;;7.38;2.25;;;;;;;13.37;85.57;100322.63;4967212;28;20027;-74
2022/11/09 01:12:31;;;;;;;7.32;2.88;;;;;;;13.47;85.60;100323.16;4950231;29;20025;-75
2022/11/09 01:14:56;;;;;;;5.22;2.22;;;;;;;13.53;85.08;100328.69;4951713;29;20556;-74
2022/11/09 01:17:22;;;;;;;17.02;2.42;;;;;;;13.36;85.92;100326.38;4950827;29;20031;-74
2022/11/09 01:19:48;;;;;;;12.48;2.80;;;;;;;13.48;85.63;100319.41;4967609;28;20027;-74
2022/11/09 01:22:13;;;;;;;5.32;2.30;;;;;;;13.41;86.14;100315.78;4951348;29;20023;-75
2022/11/09 01:24:39;;;;;;;6.38;2.00;;;;;;;13.48;85.95;100324.84;4952107;28;20044;-75
2022/11/09 01:27:04;;;;;;;4.43;2.13;;;;;;;13.43;85.82;100316.41;4951691;29;20404;-74
2022/11/09 01:29:29;;;;;;;9.15;2.40;;;;;;;13.26;86.71;100305.75;4952403;28;20031;-74
2022/11/09 01:31:55;;;;;;;7.25;2.30;;;;;;;13.28;86.61;100303.69;4953027;28;20027;-74
2022/11/09 01:34:20;;;;;;;7.60;2.35;;;;;;;13.34;86.47;100306.69;4954570;29;20042;-74
2022/11/09 01:36:50;;;;;;;3.75;1.90;;;;;;;13.15;87.37;100300.78;4970970;28;20110;-74
2022/11/09 01:39:15;;;;;;;6.53;2.80;;;;;;;13.19;87.00;100299.38;4954401;29;20071;-74
2022/11/09 01:41:41;;;;;;;8.30;2.63;;;;;;;13.11;87.60;100296.75;4954262;29;20031;-74
2022/11/09 01:44:08;;;;;;;5.82;2.17;;;;;;;13.14;87.63;100299.09;4945728;29;20035;-74
2022/11/09 01:47:15;;;;;;;7.35;2.20;;;;;;;13.07;87.76;100297.31;4936187;28;20035;-74
2022/11/09 01:50:01;;;;;;;5.60;2.50;;;;;;;13.10;87.82;100311.34;4924738;29;20055;-74
2022/11/09 01:52:35;;;;;;;6.75;2.15;;;;;;;13.05;88.11;100308.38;4935517;29;20050;-74
2022/11/09 01:55:12;;;;;;;5.32;1.98;;;;;;;13.04;88.07;100309.41;4936813;29;20032;-75
2022/11/09 01:57:53;;;;;;;5.40;2.30;;;;;;;12.97;88.44;100301.16;4935277;29;20028;-74
2022/11/09 02:00:19;;;;;;;7.80;2.47;;;;;;;13.04;88.13;100301.28;4935249;29;20110;-75
2022/11/09 02:02:56;;;;;;;4.97;2.08;;;;;;;12.95;88.58;100291.50;4949961;29;20154;-74
2022/11/09 02:05:26;;;;;;;11.10;2.20;;;;;;;13.05;88.33;100297.50;4953716;29;20027;-74
2022/11/09 02:07:52;;;;;;;10.93;1.95;;;;;;;12.99;88.45;100298.28;4955194;28;20074;-74
2022/11/09 02:10:32;;;;;;;5.13;2.20;;;;;;;13.04;88.67;100304.00;4953437;29;20070;-74
2022/11/09 02:12:58;;;;;;;5.25;2.30;;;;;;;13.06;88.59;100293.75;4954116;29;20038;-74
2022/11/09 02:15:24;;;;;;;7.43;2.30;;;;;;;13.08;88.38;100288.97;4955019;29;20031;-74
2022/11/09 02:17:54;;;;;;;6.82;2.38;;;;;;;13.01;88.90;100285.31;4953509;29;20038;-75
2022/11/09 02:20:21;;;;;;;3.92;1.80;;;;;;;13.12;88.31;100293.00;4953972;29;20035;-74
2022/11/09 02:22:46;;;;;;;5.93;2.17;;;;;;;13.19;88.01;100291.22;4969597;28;20022;-75
2022/11/09 02:25:13;;;;;;;4.55;2.05;;;;;;;13.24;87.80;100291.53;4968862;28;20027;-74
2022/11/09 02:27:42;;;;;;;7.03;2.05;;;;;;;13.16;88.36;100294.28;4953661;28;20028;-75
2022/11/09 02:30:08;;;;;;;16.23;2.75;;;;;;;13.08;89.02;100290.84;4955051;28;20031;-74
2022/11/09 02:32:34;;;;;;;11.73;2.45;;;;;;;13.19;87.94;100282.22;4952950;29;20042;-74
2022/11/09 02:34:59;;;;;;;11.25;2.35;;;;;;;13.21;88.14;100281.03;4952978;29;20027;-74
2022/11/09 02:37:33;;;;;;;6.18;2.17;;;;;;;13.32;87.79;100287.00;4953080;29;20023;-74
2022/11/09 02:40:01;;;;;;;8.65;2.35;;;;;;;13.21;88.43;100285.63;4954733;28;20050;-74
2022/11/09 02:42:26;;;;;;;5.50;1.58;;;;;;;13.34;87.73;100290.38;4953602;29;20061;-75
2022/11/09 02:44:57;;;;;;;5.45;2.00;;;;;;;13.31;87.85;100291.63;4952415;28;20058;-74
2022/11/09 02:47:22;;;;;;;7.32;1.83;;;;;;;13.38;87.65;100287.09;4952963;29;20535;-75
2022/11/09 02:49:49;;;;;;;8.25;2.30;;;;;;;13.32;87.83;100298.72;4953271;29;20016;-74
2022/11/09 02:52:15;;;;;;;5.35;2.22;;;;;;;13.20;88.55;100295.66;4953438;28;20042;-74
2022/11/09 02:54:40;;;;;;;9.30;2.40;;;;;;;13.21;88.41;100297.31;4953918;29;20047;-74
2022/11/09 02:57:05;;;;;;;6.95;2.30;;;;;;;13.20;88.74;100298.38;4952941;28;20038;-74
2022/11/09 02:59:31;;;;;;;6.53;2.42;;;;;;;13.37;87.78;100295.44;4952749;29;20027;-74
2022/11/09 03:01:56;;;;;;;7.20;2.00;;;;;;;13.27;88.14;100285.69;4949901;29;20118;-74
2022/11/09 03:04:22;;;;;;;6.28;2.17;;;;;;;13.18;88.76;100303.13;4953543;29;20488;-74
2022/11/09 03:06:47;;;;;;;7.35;2.20;;;;;;;13.34;88.16;100295.81;4946368;29;20079;-74
2022/11/09 03:09:12;;;;;;;7.72;2.60;;;;;;;13.29;88.40;100299.94;4949514;29;20031;-74
2022/11/09 03:11:39;;;;;;;10.02;2.33;;;;;;;13.16;88.86;100293.44;4949873;29;20019;-75
2022/11/09 03:14:05;;;;;;;4.95;2.53;;;;;;;13.10;88.92;100300.47;4933208;29;20019;-74
2022/11/09 03:16:31;;;;;;;9.52;2.28;;;;;;;13.24;88.65;100296.97;4949274;29;20118;-74
2022/11/09 03:18:57;;;;;;;4.65;2.20;;;;;;;13.22;88.54;100304.44;4933575;29;20035;-75
2022/11/09 03:21:23;;;;;;;9.02;1.70;;;;;;;13.30;88.59;100307.09;4949332;29;20095;-74
2022/11/09 03:23:49;;;;;;;7.57;2.70;;;;;;;13.09;88.89;100308.84;4949281;29;20500;-74
2022/11/09 03:26:15;;;;;;;6.85;2.22;;;;;;;13.24;89.10;100305.13;4949212;29;20123;-74
2022/11/09 03:28:41;;;;;;;6.57;2.22;;;;;;;13.17;89.04;100296.00;4932966;28;20087;-74
2022/11/09 03:31:07;;;;;;;3.67;2.05;;;;;;;13.16;89.15;100302.44;4944456;29;20034;-74
2022/11/09 03:33:32;;;;;;;5.47;2.63;;;;;;;13.14;89.33;100295.53;4967566;28;20011;-75
2022/11/09 03:35:58;;;;;;;7.13;2.45;;;;;;;13.13;89.74;100294.69;4952130;29;20035;-75
2022/11/09 03:38:23;;;;;;;6.70;2.75;;;;;;;13.14;89.34;100296.38;4953451;28;20023;-75
2022/11/09 03:40:49;;;;;;;4.95;2.13;;;;;;;12.98;89.95;100297.44;4954134;28;20031;-74
2022/11/09 03:43:14;;;;;;;4.85;2.03;;;;;;;13.14;89.37;100301.81;4952789;29;20027;-75
2022/11/09 03:45:40;;;;;;;5.38;2.05;;;;;;;13.08;89.81;100302.56;4953710;28;20111;-74
2022/11/09 03:48:05;;;;;;;6.00;2.42;;;;;;;13.16;89.70;100291.59;4953111;29;20043;-74
2022/11/09 03:50:32;;;;;;;6.43;2.60;;;;;;;13.16;89.49;100298.91;4952194;29;20038;-75
2022/11/09 03:52:59;;;;;;;7.00;2.67;;;;;;;13.04;89.96;100290.41;4967889;28;20034;-75
2022/11/09 03:55:25;;;;;;;7.88;3.15;;;;;;;13.13;89.63;100297.41;4950503;28;20031;-74
2022/11/09 03:57:50;;;;;;;8.80;2.30;;;;;;;13.11;89.88;100291.31;4951803;29;20468;-74
2022/11/09 04:00:18;;;;;;;6.68;2.78;;;;;;;13.15;89.58;100287.19;4950992;29;20025;-74
2022/11/09 04:02:44;;;;;;;10.02;2.15;;;;;;;13.25;89.41;100285.06;4948759;29;20051;-74
2022/11/09 04:05:10;;;;;;;5.85;2.08;;;;;;;13.23;89.84;100289.81;4947497;23;20074;-72
2022/11/09 04:07:36;;;;;;;5.38;2.22;;;;;;;13.29;89.49;100294.50;4932118;29;20074;-73
2022/11/09 04:10:02;;;;;;;5.50;2.35;;;;;;;13.39;89.36;100305.09;4932725;29;20059;-73
2022/11/09 04:12:27;;;;;;;6.25;2.10;;;;;;;13.42;88.94;100298.41;4931743;29;20031;-72
2022/11/09 04:14:52;;;;;;;3.25;1.92;;;;;;;13.54;88.69;100291.44;4931743;29;20040;-73
2022/11/09 04:17:18;;;;;;;6.07;2.05;;;;;;;13.52;88.63;100288.09;4947762;29;20035;-73
2022/11/09 04:19:43;;;;;;;13.20;3.15;;;;;;;13.36;89.22;100288.28;4931227;29;20043;-73
2022/11/09 04:22:08;;;;;;;8.10;3.47;;;;;;;13.46;89.21;100283.41;4930887;29;20027;-73
2022/11/09 04:24:34;;;;;;;8.30;2.35;;;;;;;13.37;89.30;100284.56;4931407;29;20031;-72
2022/11/09 04:26:59;;;;;;;8.85;2.65;;;;;;;13.49;88.91;100291.19;4931185;29;20024;-73
2022/11/09 04:29:24;;;;;;;11.10;3.20;;;;;;;13.41;89.05;100291.28;4947262;29;20134;-73
2022/11/09 04:31:50;;;;;;;8.32;2.53;;;;;;;13.39;89.46;100293.38;4932305;29;20034;-73
2022/11/09 04:34:16;;;;;;;9.32;2.70;;;;;;;13.20;90.25;100284.78;4931280;29;20023;-72
2022/11/09 04:36:41;;;;;;;9.63;2.60;;;;;;;13.33;89.47;100294.13;4947244;29;20024;-72
2022/11/09 04:39:07;;;;;;;7.05;2.50;;;;;;;13.31;89.72;100280.72;4947521;29;20042;-74
2022/11/09 04:41:32;;;;;;;6.07;2.45;;;;;;;13.29;89.71;100283.63;4932262;29;20027;-71
2022/11/09 04:43:57;;;;;;;8.02;2.53;;;;;;;13.12;90.41;100276.69;4932173;29;20028;-71
2022/11/09 04:46:23;;;;;;;10.00;2.42;;;;;;;13.19;90.54;100282.22;4932293;29;20087;-72
2022/11/09 04:48:48;;;;;;;7.05;2.28;;;;;;;13.20;90.19;100290.22;4932538;29;20526;-72
2022/11/09 04:51:14;;;;;;;4.95;2.33;;;;;;;13.24;90.31;100277.94;4947377;29;20023;-72
2022/11/09 04:53:39;;;;;;;9.88;2.17;;;;;;;13.22;90.07;100282.69;4946662;29;20385;-72
2022/11/09 04:56:05;;;;;;;5.55;2.45;;;;;;;13.03;91.28;100283.25;4946778;29;20030;-72
2022/11/09 04:58:31;;;;;;;9.93;3.08;;;;;;;13.22;90.09;100277.25;4946539;29;20031;-74
2022/11/09 05:01:05;;;;;;;6.38;2.90;;;;;;;13.22;90.43;100288.13;4932417;29;20028;-72
2022/11/09 05:03:30;;;;;;;6.53;2.10;;;;;;;13.17;90.42;100287.84;4946470;28;20016;-73
2022/11/09 05:05:56;;;;;;;7.82;2.63;;;;;;;13.12;91.07;100293.00;4949930;28;20023;-72
2022/11/09 05:08:21;;;;;;;4.85;2.17;;;;;;;13.13;90.97;100289.25;4954642;28;20030;-72
2022/11/09 05:10:46;;;;;;;9.25;2.50;;;;;;;13.17;90.70;100296.00;4955553;29;20035;-72
2022/11/09 05:13:13;;;;;;;9.20;2.60;;;;;;;13.25;90.28;100295.94;4953791;29;20074;-72
2022/11/09 05:15:38;;;;;;;5.85;2.80;;;;;;;13.26;90.02;100294.91;4954805;28;20496;-72
2022/11/09 05:18:04;;;;;;;10.82;2.25;;;;;;;13.19;90.62;100302.09;4954179;29;20047;-73
2022/11/09 05:20:30;;;;;;;8.60;2.10;;;;;;;12.93;91.96;100293.59;4951911;29;20038;-72
2022/11/09 05:25:41;;;;;;;13.20;2.60;;;;;;;13.00;91.79;100306.22;4954676;28;20064;-72
2022/11/09 05:28:06;;;;;;;6.43;1.95;;;;;;;13.05;91.84;100308.38;4953500;29;20062;-72
2022/11/09 05:30:32;;;;;;;6.53;2.28;;;;;;;13.17;91.18;100306.00;4953391;29;20031;-72
2022/11/09 05:32:57;;;;;;;6.13;2.20;;;;;;;13.23;90.79;100302.56;4939900;29;20047;-73
2022/11/09 05:35:23;;;;;;;8.82;2.90;;;;;;;13.25;90.48;100314.97;4935432;29;20031;-73
2022/11/09 05:37:48;;;;;;;11.02;2.47;;;;;;;13.28;90.52;100303.69;4936314;29;20472;-72
2022/11/09 05:40:15;;;;;;;8.82;2.22;;;;;;;13.28;90.92;100306.41;4935192;29;20035;-73
2022/11/09 05:42:42;;;;;;;6.60;2.53;;;;;;;13.29;90.73;100293.66;4933827;29;20027;-72
2022/11/09 05:45:10;;;;;;;8.02;2.53;;;;;;;13.43;89.87;100300.97;4933877;29;20028;-73
2022/11/09 05:47:37;;;;;;;2.95;1.88;;;;;;;13.38;90.30;100302.56;4934232;29;20030;-73
2022/11/09 05:50:03;;;;;;;12.02;2.92;;;;;;;13.29;90.50;100291.78;4934267;29;20090;-72
2022/11/09 05:52:28;;;;;;;10.02;2.42;;;;;;;13.49;89.75;100280.28;4934924;29;20032;-72
2022/11/09 05:54:54;;;;;;;7.15;2.10;;;;;;;13.39;90.37;100285.22;4935217;29;20035;-72
2022/11/09 05:57:19;;;;;;;9.68;2.22;;;;;;;13.39;89.89;100293.38;4934687;29;20024;-73
2022/11/09 05:59:44;;;;;;;5.47;2.03;;;;;;;13.27;90.53;100288.41;4933844;29;20046;-73
2022/11/09 06:02:10;;;;;;;10.48;2.17;;;;;;;13.22;90.63;100285.41;4950011;29;20027;-73
2022/11/09 06:04:35;;;;;;;5.45;2.30;;;;;;;13.34;90.19;100290.38;4933646;29;20031;-72
2022/11/09 06:07:01;;;;;;;9.10;2.08;;;;;;;13.29;90.52;100289.06;4935113;29;20040;-72
2022/11/09 06:09:26;;;;;;;5.25;2.78;;;;;;;13.36;90.36;100285.59;4934786;29;20127;-72
2022/11/09 06:11:52;;;;;;;5.55;1.92;;;;;;;13.29;90.33;100278.19;4934310;29;20076;-72
2022/11/09 06:14:17;;;;;;;8.85;2.17;;;;;;;13.36;90.27;100291.03;4949893;28;20059;-73
2022/11/09 06:16:42;;;;;;;7.22;1.83;;;;;;;13.24;90.46;100302.41;4949548;28;20042;-72
2022/11/09 06:19:08;;;;;;;7.47;2.08;;;;;;;13.34;90.36;100284.94;4948715;28;20115;-73
2022/11/09 06:21:33;;;;;;;5.07;1.83;;;;;;;13.21;90.76;100291.91;4949378;28;20027;-74
2022/11/09 06:23:59;;;;;;;5.80;2.58;;;;;;;13.33;90.14;100294.13;4949184;28;20028;-73
2022/11/09 06:26:24;;;;;;;2.72;1.80;;;;;;;13.39;89.80;100299.66;4949590;29;20118;-74
2022/11/09 06:28:49;;;;;;;7.10;1.92;;;;;;;13.23;90.51;100306.13;4949060;28;20040;-72
2022/11/09 06:31:16;;;;;;;7.15;2.13;;;;;;;13.37;89.76;100317.19;4949609;29;20039;-72
2022/11/09 06:33:42;;;;;;;8.93;2.35;;;;;;;13.32;90.08;100314.19;4934213;29;20140;-72
2022/11/09 06:36:10;;;;;;;4.25;2.15;;;;;;;13.32;90.45;100319.66;4933191;29;20050;-72
2022/11/09 06:38:35;;;;;;;3.42;1.90;;;;;;;13.48;89.48;100324.84;4949132;29;20028;-71
2022/11/09 06:41:00;;;;;;;7.13;2.47;;;;;;;13.42;90.04;100325.59;4934290;29;20043;-72
2022/11/09 06:43:26;;;;;;;10.15;2.35;;;;;;;13.34;90.26;100328.44;4948730;28;20028;-72
2022/11/09 06:45:52;;;;;;;7.00;2.10;;;;;;;13.38;89.81;100329.75;4948874;28;20033;-71
2022/11/09 06:48:18;;;;;;;8.88;1.77;;;;;;;13.26;90.16;100332.13;4933779;29;20024;-72
2022/11/09 06:50:44;;;;;;;7.80;2.28;;;;;;;13.42;89.93;100336.50;4949084;28;20102;-72
2022/11/09 06:53:12;;;;;;;5.22;2.40;;;;;;;13.40;90.05;100338.56;4934158;29;20122;-72
2022/11/09 06:55:37;;;;;;;9.02;2.13;;;;;;;13.36;89.85;100337.25;4948304;28;20110;-72
2022/11/09 06:58:14;;;;;;;9.07;2.20;;;;;;;13.24;90.56;100345.06;4934758;29;20102;-72
2022/11/09 07:00:40;;;;;;;15.93;2.55;;;;;;;13.27;90.54;100340.06;4933773;29;20031;-72
2022/11/09 07:03:05;;;;;;;5.43;2.10;;;;;;;13.41;89.89;100340.25;4934105;29;20019;-72
2022/11/09 07:05:31;;;;;;;7.25;1.90;;;;;;;13.38;89.68;100351.50;4947983;28;20043;-72
2022/11/09 07:07:57;;;;;;;5.68;2.10;;;;;;;13.29;90.56;100354.31;4948407;28;20059;-72
2022/11/09 07:10:22;;;;;;;10.10;2.60;;;;;;;13.15;91.05;100357.84;4934355;29;20047;-72
2022/11/09 07:12:48;;;;;;;10.25;2.97;;;;;;;13.34;90.25;100361.06;4946710;29;20032;-71
2022/11/09 07:15:13;;;;;;;7.05;2.22;;;;;;;13.26;90.92;100362.84;4947397;29;20094;-71
2022/11/09 07:17:40;;;;;;;11.95;3.65;;;;;;;13.17;90.77;100355.81;4947961;29;20020;-72
2022/11/09 07:20:10;;;;;;;13.77;2.90;;;;;;;13.05;91.69;100368.19;4947769;29;20028;-72
2022/11/09 07:22:38;;;;;;;7.82;2.80;;;;;;;13.15;91.30;100357.00;4930961;29;20052;-71
2022/11/09 07:25:06;;;;;;;10.73;2.78;;;;;;;13.12;91.32;100352.81;4947507;28;20028;-71
2022/11/09 07:27:31;;;;;;;21.77;2.45;;;;;;;13.42;90.17;100358.25;4932808;29;20568;-73
2022/11/09 07:29:56;;;;;;;5.13;2.08;;;;;;;13.31;90.84;100362.31;4934930;29;20122;-71
2022/11/09 07:32:22;;;;;;;7.53;2.15;;;;;;;13.34;90.75;100366.50;4935674;29;20062;-71
2022/11/09 07:34:47;;;;;;;10.15;2.80;;;;;;;13.25;90.91;100373.94;4914044;29;20036;-71
2022/11/09 07:37:13;;;;;;;13.30;3.08;;;;;;;13.20;91.42;100377.19;4929342;29;20020;-70
2022/11/09 07:39:39;;;;;;;9.63;2.40;;;;;;;13.28;91.03;100385.25;4931514;29;20066;-70
2022/11/09 07:42:04;;;;;;;7.78;2.58;;;;;;;13.25;91.42;100380.22;4933632;29;20110;-71
2022/11/09 07:44:30;;;;;;;6.85;2.25;;;;;;;13.28;91.32;100381.69;4931695;29;20035;-71
2022/11/09 07:46:55;;;;;;;7.40;2.42;;;;;;;13.40;90.78;100387.50;4947155;28;20031;-71
2022/11/09 07:49:20;;;;;;;11.18;3.00;;;;;;;13.42;90.81;100380.00;4947018;29;20027;-71
2022/11/09 07:51:46;;;;;;;10.07;2.35;;;;;;;13.42;90.82;100380.00;4947049;29;20110;-71
2022/11/09 07:54:11;;;;;;;5.70;2.38;;;;;;;13.45;90.44;100385.91;4931542;29;20027;-73
2022/11/09 07:56:37;;;;;;;7.18;2.05;;;;;;;13.53;90.32;100382.25;4931667;29;20027;-71
2022/11/09 07:59:03;;;;;;;4.72;2.00;;;;;;;13.65;90.00;100391.63;4929680;28;20066;-71
2022/11/09 08:01:28;;;;;;;11.63;3.00;;;;;;;13.72;89.52;100392.53;4909316;29;20020;-72
2022/11/09 08:03:54;;;;;;;13.57;2.88;;;;;;;13.67;90.20;100394.97;4928849;28;20507;-73
2022/11/09 08:06:21;;;;;;;14.90;2.70;;;;;;;13.63;90.19;100388.25;4916153;29;20032;-73
2022/11/09 08:08:48;;;;;;;5.28;1.90;;;;;;;13.66;90.06;100396.00;4927493;29;20024;-74
2022/11/09 08:11:14;;;;;;;7.72;2.22;;;;;;;13.80;89.50;100397.84;4921309;29;20023;-72
2022/11/09 08:13:39;;;;;;;14.90;2.70;;;;;;;13.83;89.62;100400.22;4922256;29;20447;-74
2022/11/09 08:16:04;;;;;;;10.25;2.45;;;;;;;13.99;88.98;100398.28;4919015;29;20043;-72
2022/11/09 08:18:30;;;;;;;23.10;3.25;;;;;;;14.06;88.88;100404.66;4920667;29;20046;-71
2022/11/09 08:20:55;;;;;;;8.95;2.38;;;;;;;13.94;88.94;100400.72;4933209;28;20051;-72
2022/11/09 08:23:21;;;;;;;12.32;2.92;;;;;;;14.16;88.33;100405.19;4923018;29;20115;-71
2022/11/09 08:25:48;;;;;;;10.07;2.28;;;;;;;14.00;88.68;100405.41;4921853;29;20136;-74
2022/11/09 08:28:16;;;;;;;7.75;2.38;;;;;;;14.02;88.90;100393.31;4933057;28;20023;-71
2022/11/09 08:30:43;;;;;;;12.27;2.40;;;;;;;14.35;87.71;100393.66;4921349;29;20143;-71
2022/11/09 08:33:09;;;;;;;11.60;2.85;;;;;;;14.30;87.46;100390.66;4920411;29;20024;-74
2022/11/09 08:35:34;;;;;;;10.40;2.78;;;;;;;14.09;87.65;100393.38;4920165;29;20036;-73
2022/11/09 08:38:02;;;;;;;7.82;2.42;;;;;;;14.29;87.41;100394.44;4927637;29;20074;-71
2022/11/09 08:40:28;;;;;;;11.77;3.05;;;;;;;14.31;87.53;100397.78;4920487;29;20035;-74
2022/11/09 08:42:54;;;;;;;13.82;2.33;;;;;;;14.37;86.82;100391.56;4935851;28;20024;-72
2022/11/09 08:45:20;;;;;;;7.82;2.05;;;;;;;14.39;86.72;100405.84;4921476;29;20031;-72
2022/11/09 08:47:46;;;;;;;18.00;2.72;;;;;;;14.31;86.50;100405.97;4919883;29;20488;-72
2022/11/09 08:50:13;;;;;;;10.52;2.20;;;;;;;14.45;86.29;100403.38;4938855;28;20024;-70
2022/11/09 08:52:39;;;;;;;10.52;2.60;;;;;;;14.62;85.32;100402.09;4938281;28;20027;-74
2022/11/09 08:55:06;;;;;;;11.63;2.55;;;;;;;14.55;84.74;100399.31;4939264;28;20027;-71
2022/11/09 08:57:32;;;;;;;10.57;2.47;;;;;;;14.79;84.03;100400.78;4942068;28;20028;-72
2022/11/09 08:59:57;;;;;;;11.98;3.47;;;;;;;14.61;84.38;100411.31;4911694;29;20459;-71
2022/11/09 09:02:23;;;;;;;15.45;2.50;;;;;;;14.60;84.54;100406.88;4923135;29;20159;-70
2022/11/09 09:04:48;;;;;;;8.05;2.53;;;;;;;14.76;83.85;100401.19;4923717;29;20063;-72
2022/11/09 09:07:14;;;;;;;15.85;2.63;;;;;;;14.78;83.66;100404.53;4922800;29;20032;-71
2022/11/09 09:09:40;;;;;;;16.75;2.30;;;;;;;14.83;82.87;100418.41;4938131;28;20039;-71
2022/11/09 09:12:06;;;;;;;24.83;3.30;;;;;;;14.76;83.66;100425.69;4922880;29;20114;-72
2022/11/09 09:14:33;;;;;;;16.10;3.28;;;;;;;14.82;83.22;100427.66;4924124;29;20076;-71
2022/11/09 09:16:59;;;;;;;14.13;2.90;;;;;;;14.65;83.57;100421.63;4937501;28;20582;-71
2022/11/09 09:19:24;;;;;;;11.63;2.63;;;;;;;14.78;83.77;100415.44;4923929;29;20079;-70
2022/11/09 09:21:50;;;;;;;18.65;3.47;;;;;;;14.61;84.21;100411.31;4923204;29;20039;-72
2022/11/09 09:24:15;;;;;;;16.80;3.33;;;;;;;14.73;83.69;100428.81;4938029;28;20023;-72
2022/11/09 09:26:41;;;;;;;14.95;2.90;;;;;;;14.73;83.72;100434.25;4932136;28;20039;-73
2022/11/09 09:29:06;;;;;;;12.10;3.05;;;;;;;14.81;83.71;100420.50;4916181;29;20036;-70
2022/11/09 09:31:31;;;;;;;18.27;3.05;;;;;;;14.88;83.35;100432.31;4916377;29;20135;-70
2022/11/09 09:33:57;;;;;;;18.02;3.05;;;;;;;15.06;82.42;100439.13;4937382;28;20118;-73
2022/11/09 09:36:23;;;;;;;14.63;2.88;;;;;;;14.92;83.18;100421.84;4915763;29;20031;-72
2022/11/09 09:38:52;;;;;;;18.52;2.55;;;;;;;14.89;82.84;100438.59;4924823;29;20032;-70
2022/11/09 09:41:23;;;;;;;19.48;3.42;;;;;;;14.93;81.89;100424.38;4923817;29;20111;-70
2022/11/09 09:43:52;;;;;;;10.95;3.05;;;;;;;14.82;81.55;100444.00;4910501;29;20111;-70
2022/11/09 09:46:36;;;;;;;11.48;2.22;;;;;;;14.89;81.25;100428.53;4922495;29;20034;-72
2022/11/09 09:49:13;;;;;;;12.45;2.72;;;;;;;14.93;81.21;100434.41;4936962;28;20035;-71
2022/11/09 09:51:48;;;;;;;12.85;2.90;;;;;;;14.87;81.08;100446.97;4922175;29;20031;-72
2022/11/09 09:54:24;;;;;;;16.25;3.00;;;;;;;14.92;81.34;100455.38;4924983;29;20183;-72
2022/11/09 09:56:53;;;;;;;13.68;2.88;;;;;;;14.85;81.36;100443.59;4942600;28;20032;-72
2022/11/09 09:59:39;;;;;;;17.67;2.58;;;;;;;14.75;81.56;100459.44;4941928;28;20028;-71
2022/11/09 10:02:30;;;;;;;19.50;3.13;;;;;;;14.62;81.88;100442.97;4920704;29;20247;-71
2022/11/09 10:05:00;;;;;;;17.40;3.63;;;;;;;14.77;81.97;100451.06;4924929;29;20035;-70
2022/11/09 10:07:50;;;;;;;10.55;2.63;;;;;;;15.04;81.11;100443.94;4919807;29;20079;-73
2022/11/09 10:10:45;;;;;;;12.45;2.72;;;;;;;15.05;80.72;100438.28;4941634;28;20024;-72
2022/11/09 10:13:19;;;;;;;16.60;3.60;;;;;;;14.98;80.43;100425.66;4925221;29;20036;-73
2022/11/09 10:15:50;;;;;;;13.52;2.90;;;;;;;15.12;79.79;100444.63;4924332;29;20079;-71
2022/11/09 10:18:27;;;;;;;19.48;3.63;;;;;;;15.05;80.11;100442.91;4925215;29;20063;-70
2022/11/09 10:21:30;;;;;;;13.45;2.65;;;;;;;14.95;80.04;100454.16;4924674;29;20108;-71
2022/11/09 10:24:17;;;;;;;14.52;2.85;;;;;;;14.95;80.59;100464.22;4923862;29;20118;-70
2022/11/09 10:26:47;;;;;;;11.07;2.38;;;;;;;15.09;79.84;100438.75;4927928;29;20352;-70
2022/11/09 10:29:27;;;;;;;16.58;2.90;;;;;;;14.96;80.49;100450.41;4923361;29;20111;-71
2022/11/09 10:32:16;;;;;;;13.43;2.40;;;;;;;14.98;80.53;100447.47;4920646;29;20059;-72
2022/11/09 10:35:23;;;;;;;19.58;3.63;;;;;;;15.00;80.91;100445.41;4926638;29;20035;-72
2022/11/09 10:37:51;;;;;;;9.85;3.53;;;;;;;15.14;79.78;100436.28;4933219;28;20032;-73
2022/11/09 10:40:34;;;;;;;17.60;3.47;;;;;;;15.44;79.67;100435.00;4925098;29;20027;-73
2022/11/09 10:43:05;;;;;;;10.32;2.10;;;;;;;15.62;78.14;100445.44;4922906;29;20035;-72
2022/11/09 10:45:36;;;;;;;17.88;3.22;;;;;;;15.51;78.39;100431.47;4926799;29;20054;-71
2022/11/09 10:48:03;;;;;;;;;;;;;;;15.98;77.28;100437.00;4911647;29;20032;-71
2022/11/09 10:50:39;;;;;;;20.88;3.30;;;;;;;15.55;77.13;100443.69;4919488;29;19982;-71
2022/11/09 10:53:37;;;;;;;14.80;3.13;;;;;;;15.27;78.17;100452.75;4937164;28;20090;-73
2022/11/09 10:56:13;;;;;;;24.58;3.53;;;;;;;15.24;78.29;100442.22;4898372;29;20036;-73
2022/11/09 10:58:46;;;;;;;14.27;2.92;;;;;;;15.16;78.37;100445.09;4945926;28;20031;-70
2022/11/09 11:01:13;;;;;;;14.20;2.58;;;;;;;15.62;76.85;100441.84;4925954;29;20040;-72
2022/11/09 11:03:40;;;;;;;11.40;2.80;;;;;;;15.36;77.31;100446.06;4941479;28;20024;-72
2022/11/09 11:06:21;;;;;;;17.10;2.97;;;;;;;15.28;77.63;100443.50;4928033;29;20051;-71
2022/11/09 11:09:04;;;;;;;11.05;2.65;;;;;;;15.38;77.74;100443.97;4936005;29;20059;-71
2022/11/09 11:11:32;;;;;;;14.38;2.70;;;;;;;15.66;76.71;100441.25;4936906;29;20123;-71
2022/11/09 11:14:19;;;;;;;13.77;2.58;;;;;;;15.59;76.08;100440.34;4928028;29;20035;-72
2022/11/09 11:16:45;;;;;;;13.90;2.80;;;;;;;15.41;76.73;100462.69;4927303;29;20036;-73
2022/11/09 11:19:32;;;;;;;16.92;2.67;;;;;;;15.41;77.03;100435.41;4927146;29;20039;-72
2022/11/09 11:22:18;;;;;;;17.40;3.17;;;;;;;15.48;76.62;100455.38;4933244;29;20339;-71
2022/11/09 11:25:01;;;;;;;10.27;2.83;;;;;;;16.17;75.05;100453.63;4941114;28;20023;-75
2022/11/09 11:27:54;;;;;;;12.90;2.80;;;;;;;16.16;74.84;100441.88;4927001;29;20118;-71
2022/11/09 11:30:27;;;;;;;16.73;2.90;;;;;;;16.42;74.10;100438.34;4921014;29;20543;-72